Time;durP1;ratioP1;P1;durP2;ratioP2;P2;SDS_P1;SDS_P2;PMS_P1;PMS_P2;Temp;Humidity;BMP_temperature;BMP_pressure;BME280_temperature;BME280_humidity;BME280_pressure;Samples;Min_cycle;Max_cycle;Signal;HPM_P1;HPM_P2
2021/05/16 00:02:22;;;;;;;24.98;10.18;;;11.40;99.90;;;;;;5073624;28;20067;-77
2021/05/16 00:04:49;;;;;;;21.75;10.38;;;11.40;99.90;;;;;;5074021;28;20388;-77
2021/05/16 00:07:15;;;;;;;21.80;9.75;;;11.40;99.90;;;;;;5073359;28;20032;-78
2021/05/16 00:09:41;;;;;;;21.85;10.07;;;11.40;99.90;;;;;;5074013;28;20021;-76
2021/05/16 00:12:08;;;;;;;24.00;10.13;;;11.40;99.90;;;;;;5074505;28;20112;-77
2021/05/16 00:14:35;;;;;;;22.90;9.25;;;11.40;99.90;;;;;;5073406;28;20033;-77
2021/05/16 00:17:07;;;;;;;19.08;9.30;;;11.40;99.90;;;;;;5074567;28;20432;-79
2021/05/16 00:19:33;;;;;;;24.75;9.93;;;11.40;99.90;;;;;;5073834;28;20035;-76
2021/05/16 00:21:59;;;;;;;20.25;9.20;;;11.40;99.90;;;;;;5073188;28;20033;-76
2021/05/16 00:24:26;;;;;;;31.55;9.23;;;11.50;99.90;;;;;;5073401;28;20154;-75
2021/05/16 00:26:51;;;;;;;23.73;8.75;;;11.50;99.90;;;;;;5073567;28;20032;-77
2021/05/16 00:29:17;;;;;;;25.23;8.88;;;11.50;99.90;;;;;;5075243;28;20102;-78
2021/05/16 00:31:43;;;;;;;24.35;8.57;;;11.50;99.90;;;;;;5075430;28;20490;-76
2021/05/16 00:34:09;;;;;;;20.70;8.05;;;11.50;99.90;;;;;;5073186;28;20028;-76
2021/05/16 00:36:34;;;;;;;34.60;9.15;;;11.50;99.90;;;;;;5072424;28;20024;-76
2021/05/16 00:39:00;;;;;;;19.92;8.38;;;11.60;99.90;;;;;;5073385;28;20048;-77
2021/05/16 00:41:26;;;;;;;26.23;8.57;;;11.50;99.90;;;;;;5072801;28;20399;-77
2021/05/16 00:43:52;;;;;;;25.52;8.10;;;11.50;99.90;;;;;;5073098;28;20103;-77
2021/05/16 00:46:17;;;;;;;28.38;8.45;;;11.50;99.90;;;;;;5073250;28;20024;-76
2021/05/16 00:48:43;;;;;;;35.22;7.75;;;11.60;99.90;;;;;;5072509;28;20027;-78
2021/05/16 00:51:12;;;;;;;30.73;11.13;;;11.50;99.90;;;;;;5073583;28;20021;-78
2021/05/16 00:53:37;;;;;;;37.63;12.30;;;11.60;99.90;;;;;;5072748;28;20116;-77
2021/05/16 00:56:04;;;;;;;48.65;13.25;;;11.50;99.90;;;;;;5072368;28;20115;-78
2021/05/16 00:58:29;;;;;;;48.58;13.43;;;11.50;99.90;;;;;;5072734;28;20103;-77
2021/05/16 01:00:55;;;;;;;39.22;14.38;;;11.50;99.90;;;;;;5072741;28;20469;-78
2021/05/16 01:03:21;;;;;;;39.13;14.35;;;11.50;99.90;;;;;;5072227;28;20376;-77
2021/05/16 01:05:48;;;;;;;41.78;14.20;;;11.50;99.90;;;;;;5073019;28;20021;-76
2021/05/16 01:08:14;;;;;;;42.03;14.02;;;11.50;99.90;;;;;;5072613;28;20031;-77
2021/05/16 01:10:41;;;;;;;46.83;13.93;;;11.50;99.90;;;;;;5072471;28;20424;-78
2021/05/16 01:13:09;;;;;;;37.50;14.05;;;11.50;99.90;;;;;;5073155;28;20112;-77
2021/05/16 01:15:37;;;;;;;32.70;13.32;;;11.50;99.90;;;;;;5073165;28;20052;-77
2021/05/16 01:18:03;;;;;;;47.92;16.05;;;11.40;99.90;;;;;;5072586;28;20111;-77
2021/05/16 01:20:34;;;;;;;48.83;17.48;;;11.40;99.90;;;;;;5072679;28;20020;-78
2021/05/16 01:23:09;;;;;;;44.17;14.95;;;11.40;99.90;;;;;;5072140;28;20458;-78
2021/05/16 01:25:39;;;;;;;37.58;13.32;;;11.40;99.90;;;;;;5072667;28;20032;-78
2021/05/16 01:28:06;;;;;;;51.00;14.68;;;11.40;99.90;;;;;;5072546;28;20036;-77
2021/05/16 01:30:32;;;;;;;45.03;14.75;;;11.30;99.90;;;;;;5072348;28;20131;-77
2021/05/16 01:32:58;;;;;;;44.70;14.23;;;11.30;99.90;;;;;;5071760;28;20038;-76
2021/05/16 01:35:24;;;;;;;44.78;13.75;;;11.30;99.90;;;;;;5073338;28;20051;-79
2021/05/16 01:37:50;;;;;;;46.35;14.23;;;11.30;99.90;;;;;;5073425;28;20024;-78
2021/05/16 01:40:18;;;;;;;45.17;14.32;;;11.30;99.90;;;;;;5091963;28;20479;-77
2021/05/16 01:42:49;;;;;;;48.20;14.20;;;11.20;99.90;;;;;;5092817;28;20060;-77
2021/05/16 01:45:16;;;;;;;39.65;13.63;;;11.30;99.90;;;;;;5091864;28;20023;-77
2021/05/16 01:47:45;;;;;;;45.13;14.02;;;11.20;99.90;;;;;;5089931;28;20353;-76
2021/05/16 01:50:16;;;;;;;44.35;13.88;;;11.20;99.90;;;;;;5082277;28;20048;-77
2021/05/16 01:52:46;;;;;;;51.28;15.07;;;11.20;99.90;;;;;;5091537;28;20032;-77
2021/05/16 01:55:13;;;;;;;47.10;14.50;;;11.20;99.90;;;;;;5091812;28;20017;-76
2021/05/16 01:57:40;;;;;;;42.75;13.30;;;11.10;99.90;;;;;;5092445;28;20051;-78
2021/05/16 02:00:14;;;;;;;34.13;11.82;;;11.10;99.90;;;;;;5084777;28;20094;-76
2021/05/16 02:02:41;;;;;;;42.10;12.77;;;11.10;99.90;;;;;;5085711;28;20517;-78
2021/05/16 02:05:09;;;;;;;35.30;11.45;;;11.20;99.90;;;;;;5092511;28;20032;-78
2021/05/16 02:07:35;;;;;;;33.28;12.27;;;11.10;99.90;;;;;;5091517;28;20426;-77
2021/05/16 02:10:02;;;;;;;36.78;11.20;;;11.10;99.90;;;;;;5092639;28;20030;-77
2021/05/16 02:12:28;;;;;;;44.58;14.77;;;11.10;99.90;;;;;;5091942;28;20110;-77
2021/05/16 02:14:53;;;;;;;44.50;13.30;;;11.10;99.90;;;;;;5077669;28;20103;-77
2021/05/16 02:17:19;;;;;;;39.33;14.38;;;11.20;99.90;;;;;;5091717;28;20024;-76
2021/05/16 02:19:45;;;;;;;46.53;14.98;;;11.10;99.90;;;;;;5091823;28;20070;-77
2021/05/16 02:22:13;;;;;;;44.03;13.52;;;11.10;99.90;;;;;;5091111;28;20073;-77
2021/05/16 02:24:38;;;;;;;39.47;14.32;;;11.10;99.90;;;;;;5092223;28;20048;-79
2021/05/16 02:27:04;;;;;;;45.25;13.65;;;11.10;99.90;;;;;;5092359;28;20032;-77
2021/05/16 02:29:31;;;;;;;44.70;13.32;;;11.10;99.90;;;;;;5092253;28;20024;-78
2021/05/16 02:31:58;;;;;;;46.92;13.48;;;11.10;99.90;;;;;;5092276;28;20081;-77
2021/05/16 02:34:23;;;;;;;44.15;13.32;;;11.10;99.90;;;;;;5091346;28;20016;-78
2021/05/16 02:36:50;;;;;;;50.00;13.82;;;11.10;99.90;;;;;;5091787;28;20024;-78
2021/05/16 02:39:15;;;;;;;35.28;11.77;;;11.10;99.90;;;;;;5091985;28;20024;-78
2021/05/16 02:41:41;;;;;;;41.25;12.57;;;11.10;99.90;;;;;;5091911;28;20397;-78
2021/05/16 02:44:07;;;;;;;33.22;10.77;;;11.00;99.90;;;;;;5091890;28;20024;-77
2021/05/16 02:46:33;;;;;;;43.53;11.75;;;11.00;99.90;;;;;;5091989;28;20050;-76
2021/05/16 02:48:59;;;;;;;31.55;11.10;;;11.10;99.90;;;;;;5090993;28;20107;-78
2021/05/16 02:51:24;;;;;;;30.15;10.73;;;11.00;99.90;;;;;;5094820;28;20132;-78
2021/05/16 02:53:50;;;;;;;34.75;11.77;;;10.90;99.90;;;;;;5095986;28;20028;-78
2021/05/16 02:56:17;;;;;;;33.97;11.98;;;10.90;99.90;;;;;;5094871;28;20077;-78
2021/05/16 02:58:43;;;;;;;29.00;11.45;;;10.90;99.90;;;;;;5095724;28;20020;-78
2021/05/16 03:01:11;;;;;;;41.45;11.95;;;10.90;99.90;;;;;;5095326;28;20463;-77
2021/05/16 03:03:38;;;;;;;45.75;13.18;;;10.90;99.90;;;;;;5095146;28;20429;-77
2021/05/16 03:06:04;;;;;;;34.30;12.43;;;11.00;99.90;;;;;;5095494;28;20020;-77
2021/05/16 03:08:29;;;;;;;37.13;13.52;;;11.00;99.90;;;;;;5094833;28;20029;-78
2021/05/16 03:10:55;;;;;;;39.25;13.10;;;11.00;99.90;;;;;;5094714;28;20024;-78
2021/05/16 03:13:20;;;;;;;39.72;12.05;;;11.00;99.90;;;;;;5095231;28;20020;-78
2021/05/16 03:15:46;;;;;;;51.60;12.70;;;11.00;99.90;;;;;;5094930;28;20024;-77
2021/05/16 03:18:11;;;;;;;34.13;10.07;;;11.10;99.90;;;;;;5094469;28;20032;-77
2021/05/16 03:20:37;;;;;;;41.80;12.80;;;11.00;99.90;;;;;;5095082;28;20411;-77
2021/05/16 03:23:09;;;;;;;45.88;13.95;;;11.00;99.90;;;;;;5095245;28;22291;-78
2021/05/16 03:25:36;;;;;;;34.95;10.55;;;11.00;99.90;;;;;;5094042;28;20461;-77
2021/05/16 03:28:03;;;;;;;42.08;12.80;;;11.00;99.90;;;;;;5096659;28;20067;-78
2021/05/16 03:30:28;;;;;;;34.50;11.20;;;10.90;99.90;;;;;;5097224;28;20031;-77
2021/05/16 03:32:54;;;;;;;37.85;11.77;;;10.90;99.90;;;;;;5094723;28;20021;-78
2021/05/16 03:35:20;;;;;;;41.85;11.95;;;10.90;99.90;;;;;;5094497;28;20035;-77
2021/05/16 03:37:45;;;;;;;47.30;11.25;;;10.90;99.90;;;;;;5095282;28;20084;-78
2021/05/16 03:40:12;;;;;;;26.20;11.00;;;10.80;99.90;;;;;;5093894;28;20112;-78
2021/05/16 03:42:37;;;;;;;33.35;10.10;;;10.90;99.90;;;;;;5086146;28;20041;-78
2021/05/16 03:45:05;;;;;;;33.42;10.55;;;10.80;99.90;;;;;;5100567;28;20046;-77
2021/05/16 03:47:31;;;;;;;32.72;9.77;;;10.90;99.90;;;;;;5094303;28;20502;-78
2021/05/16 03:49:56;;;;;;;47.45;11.18;;;10.90;99.90;;;;;;5094745;28;20020;-77
2021/05/16 03:52:22;;;;;;;34.28;11.95;;;10.90;99.90;;;;;;5094150;28;20101;-77
2021/05/16 03:54:49;;;;;;;40.92;11.63;;;10.90;99.90;;;;;;5094947;28;20023;-77
2021/05/16 03:57:16;;;;;;;41.42;11.23;;;10.90;99.90;;;;;;5094269;28;20039;-76
2021/05/16 03:59:42;;;;;;;31.08;12.32;;;11.00;99.90;;;;;;5093851;28;20048;-76
2021/05/16 04:02:08;;;;;;;52.28;14.07;;;11.00;99.90;;;;;;5093867;28;20036;-77
2021/05/16 04:04:34;;;;;;;43.97;13.25;;;11.00;99.90;;;;;;5094127;28;20027;-77
2021/05/16 04:06:59;;;;;;;39.13;13.20;;;10.90;99.90;;;;;;5093878;28;20055;-76
2021/05/16 04:09:25;;;;;;;44.25;13.13;;;10.90;99.90;;;;;;5094028;28;20024;-77
2021/05/16 04:11:50;;;;;;;38.70;11.75;;;11.00;99.90;;;;;;5094542;28;20100;-77
2021/05/16 04:14:17;;;;;;;45.47;13.45;;;10.90;99.90;;;;;;5093317;28;20020;-76
2021/05/16 04:16:43;;;;;;;38.60;11.52;;;10.90;99.90;;;;;;5094736;28;20024;-77
2021/05/16 04:19:09;;;;;;;24.35;8.00;;;10.90;99.90;;;;;;5094648;28;20518;-77
2021/05/16 04:21:34;;;;;;;26.70;7.55;;;10.90;99.90;;;;;;5093769;28;20476;-76
2021/05/16 04:24:00;;;;;;;21.25;6.07;;;10.90;99.90;;;;;;5093936;28;20097;-77
2021/05/16 04:26:25;;;;;;;17.85;6.80;;;10.80;99.90;;;;;;5094439;28;20119;-76
2021/05/16 04:28:51;;;;;;;22.98;8.95;;;10.80;99.90;;;;;;5093592;28;20447;-76
2021/05/16 04:31:16;;;;;;;32.10;9.90;;;10.70;99.90;;;;;;5093937;28;20020;-76
2021/05/16 04:33:45;;;;;;;28.95;10.02;;;10.70;99.90;;;;;;5093630;28;20024;-78
2021/05/16 04:36:10;;;;;;;41.47;12.23;;;10.70;99.90;;;;;;5094045;28;20119;-77
2021/05/16 04:38:36;;;;;;;33.92;9.55;;;10.70;99.90;;;;;;5093538;28;20044;-76
2021/05/16 04:41:02;;;;;;;37.08;10.80;;;10.70;99.90;;;;;;5093199;28;20054;-77
2021/05/16 04:43:27;;;;;;;37.13;11.05;;;10.70;99.90;;;;;;5079446;28;20116;-77
2021/05/16 04:45:53;;;;;;;33.00;12.57;;;10.70;99.90;;;;;;5093796;28;20044;-77
2021/05/16 04:48:18;;;;;;;45.30;11.20;;;10.80;99.90;;;;;;5093063;28;20498;-77
2021/05/16 04:50:44;;;;;;;53.25;12.55;;;10.80;99.90;;;;;;5094114;28;20368;-77
2021/05/16 04:53:10;;;;;;;49.40;12.70;;;10.80;99.90;;;;;;5085827;28;20028;-77
2021/05/16 04:55:35;;;;;;;44.35;12.77;;;10.80;99.90;;;;;;5086570;28;20545;-78
2021/05/16 04:58:01;;;;;;;35.63;11.30;;;10.80;99.90;;;;;;5094691;28;20101;-78
2021/05/16 05:00:27;;;;;;;56.40;12.27;;;10.80;99.90;;;;;;5093102;28;20062;-77
2021/05/16 05:02:52;;;;;;;46.45;11.90;;;10.80;99.90;;;;;;5092745;28;20119;-78
2021/05/16 05:05:18;;;;;;;35.65;12.32;;;10.80;99.90;;;;;;5092924;28;20024;-78
2021/05/16 05:07:47;;;;;;;44.60;10.82;;;10.90;99.90;;;;;;5093370;28;20074;-77
2021/05/16 05:10:13;;;;;;;45.58;12.32;;;10.90;99.90;;;;;;5092295;28;20020;-77
2021/05/16 05:12:38;;;;;;;36.38;10.15;;;11.00;99.90;;;;;;5093686;28;20082;-77
2021/05/16 05:15:05;;;;;;;40.67;9.85;;;11.00;99.90;;;;;;5092611;28;20031;-77
2021/05/16 05:17:31;;;;;;;40.45;11.13;;;11.00;99.90;;;;;;5091879;28;20024;-77
2021/05/16 05:19:56;;;;;;;50.35;12.70;;;11.00;99.90;;;;;;5093267;28;20027;-78
2021/05/16 05:22:22;;;;;;;37.95;10.75;;;11.00;99.90;;;;;;5093100;28;20032;-77
2021/05/16 05:24:47;;;;;;;35.95;11.05;;;11.00;99.90;;;;;;5078129;28;20052;-77
2021/05/16 05:27:13;;;;;;;52.08;11.00;;;11.00;99.90;;;;;;5093105;28;20024;-76
2021/05/16 05:29:38;;;;;;;44.00;10.73;;;11.00;99.90;;;;;;5092675;28;20028;-77
2021/05/16 05:32:04;;;;;;;40.40;10.27;;;11.10;99.90;;;;;;5093636;28;20480;-77
2021/05/16 05:34:30;;;;;;;36.35;9.50;;;11.20;99.90;;;;;;5094847;28;20024;-77
2021/05/16 05:36:57;;;;;;;45.55;9.75;;;11.30;99.90;;;;;;5093146;28;20013;-77
2021/05/16 05:39:22;;;;;;;40.90;9.65;;;11.30;99.90;;;;;;5092325;28;20070;-77
2021/05/16 05:41:48;;;;;;;35.10;9.20;;;11.40;99.90;;;;;;5094302;28;20032;-77
2021/05/16 05:44:14;;;;;;;56.38;10.50;;;11.50;99.90;;;;;;5095603;28;20083;-79
2021/05/16 05:46:40;;;;;;;37.30;10.80;;;11.50;99.90;;;;;;5097050;28;20110;-78
2021/05/16 05:49:06;;;;;;;37.78;9.55;;;11.50;99.90;;;;;;5097851;28;20030;-77
2021/05/16 05:51:31;;;;;;;45.42;11.52;;;11.60;99.90;;;;;;5085758;28;20033;-78
2021/05/16 05:53:57;;;;;;;39.13;10.63;;;11.70;99.90;;;;;;5082380;28;20025;-77
2021/05/16 05:56:23;;;;;;;51.33;10.27;;;11.60;99.90;;;;;;5080685;28;20045;-79
2021/05/16 05:58:49;;;;;;;40.22;10.90;;;11.70;99.90;;;;;;5059312;28;20028;-78
2021/05/16 06:01:14;;;;;;;44.90;12.55;;;11.80;99.90;;;;;;5073080;28;20044;-78
2021/05/16 06:03:40;;;;;;;43.63;11.05;;;11.90;99.90;;;;;;5065078;28;20017;-79
2021/05/16 06:06:08;;;;;;;46.00;11.23;;;12.10;99.90;;;;;;5066012;28;20376;-78
2021/05/16 06:08:33;;;;;;;40.35;11.98;;;12.10;99.90;;;;;;5057446;28;20605;-78
2021/05/16 06:10:59;;;;;;;36.67;12.05;;;12.10;99.90;;;;;;5053827;28;20157;-78
2021/05/16 06:13:25;;;;;;;36.10;11.15;;;12.10;99.90;;;;;;5052090;28;20047;-79
2021/05/16 06:15:50;;;;;;;43.72;11.43;;;12.20;99.90;;;;;;5057855;28;20124;-78
2021/05/16 06:18:16;;;;;;;40.45;9.88;;;12.20;99.90;;;;;;5055742;28;20018;-78
2021/05/16 06:20:41;;;;;;;36.60;10.43;;;12.30;99.90;;;;;;5066331;28;20111;-79
2021/05/16 06:23:10;;;;;;;32.38;8.95;;;12.40;99.90;;;;;;5056664;28;20062;-78
2021/05/16 06:25:37;;;;;;;36.88;9.35;;;12.40;99.90;;;;;;5073481;28;20024;-78
2021/05/16 06:28:03;;;;;;;42.50;9.98;;;12.50;99.90;;;;;;5084900;28;20033;-79
2021/05/16 06:30:28;;;;;;;44.25;10.40;;;12.60;99.90;;;;;;5090148;28;20035;-78
2021/05/16 06:32:54;;;;;;;40.75;9.25;;;12.60;99.90;;;;;;5084567;28;20012;-78
2021/05/16 06:35:19;;;;;;;37.42;10.40;;;12.60;99.90;;;;;;5088221;28;20024;-80
2021/05/16 06:37:46;;;;;;;34.53;9.25;;;12.60;99.90;;;;;;5086352;28;20027;-77
2021/05/16 06:40:13;;;;;;;35.53;9.82;;;12.70;99.90;;;;;;5086971;28;20020;-78
2021/05/16 06:42:40;;;;;;;29.42;8.63;;;12.70;99.90;;;;;;5087661;28;20058;-79
2021/05/16 06:45:07;;;;;;;33.22;9.68;;;12.70;99.90;;;;;;5085539;28;20027;-78
2021/05/16 06:47:32;;;;;;;33.90;10.00;;;12.70;99.90;;;;;;5094907;28;20372;-78
2021/05/16 06:49:58;;;;;;;35.28;9.20;;;12.60;99.90;;;;;;5096302;28;20099;-78
2021/05/16 06:52:23;;;;;;;40.60;9.65;;;12.60;99.90;;;;;;5095969;28;20023;-79
2021/05/16 06:54:49;;;;;;;36.42;9.68;;;12.70;99.90;;;;;;5095252;28;20375;-79
2021/05/16 06:57:16;;;;;;;41.28;9.10;;;12.60;99.90;;;;;;5095923;28;20464;-79
2021/05/16 06:59:41;;;;;;;28.13;8.77;;;12.70;99.90;;;;;;5095712;28;20031;-78
2021/05/16 07:02:07;;;;;;;33.47;9.18;;;12.60;99.90;;;;;;5095066;28;20032;-78
2021/05/16 07:04:33;;;;;;;39.33;9.70;;;12.60;99.90;;;;;;5095267;28;20598;-78
2021/05/16 07:06:59;;;;;;;28.88;8.50;;;12.80;99.90;;;;;;5095562;28;20089;-79
2021/05/16 07:09:24;;;;;;;29.27;10.30;;;12.80;99.90;;;;;;5080269;28;20103;-80
2021/05/16 07:11:51;;;;;;;27.20;9.43;;;12.80;99.90;;;;;;5096031;28;20031;-80
2021/05/16 07:14:16;;;;;;;33.10;9.00;;;12.80;99.90;;;;;;5095411;28;20046;-79
2021/05/16 07:16:42;;;;;;;34.20;9.52;;;12.80;99.90;;;;;;5095457;28;20028;-80
2021/05/16 07:19:07;;;;;;;35.80;9.63;;;12.80;99.90;;;;;;5083297;28;20083;-81
2021/05/16 07:21:33;;;;;;;30.23;9.75;;;12.90;99.90;;;;;;5080323;28;20081;-81
2021/05/16 07:23:59;;;;;;;36.05;9.43;;;12.90;99.90;;;;;;5076400;28;20076;-81
2021/05/16 07:26:25;;;;;;;32.40;8.55;;;13.00;99.90;;;;;;5071172;28;20052;-81
2021/05/16 07:28:50;;;;;;;31.25;8.57;;;13.00;99.90;;;;;;5073063;28;20021;-81
2021/05/16 07:31:16;;;;;;;21.45;8.63;;;13.10;99.90;;;;;;5074877;28;20036;-81
2021/05/16 07:33:42;;;;;;;26.73;8.82;;;13.10;99.90;;;;;;5077360;28;20021;-80
2021/05/16 07:36:08;;;;;;;38.90;10.13;;;13.20;99.90;;;;;;5072652;28;20126;-80
2021/05/16 07:38:34;;;;;;;24.83;8.88;;;13.30;99.90;;;;;;5075115;28;20341;-81
2021/05/16 07:41:00;;;;;;;25.58;8.45;;;13.30;99.90;;;;;;5074708;28;20028;-80
2021/05/16 07:43:25;;;;;;;33.40;10.27;;;13.30;99.90;;;;;;5072336;28;20636;-80
2021/05/16 07:45:52;;;;;;;31.08;10.63;;;13.60;99.90;;;;;;5078817;28;20020;-79
2021/05/16 07:48:18;;;;;;;29.00;10.63;;;13.80;99.90;;;;;;5095286;28;20048;-80
2021/05/16 07:50:44;;;;;;;35.20;10.85;;;13.90;99.90;;;;;;5078952;28;20499;-81
2021/05/16 07:53:11;;;;;;;25.55;10.27;;;14.00;99.90;;;;;;5083322;28;20103;-80
2021/05/16 07:55:41;;;;;;;37.80;10.88;;;13.90;99.90;;;;;;5094238;28;20024;-79
2021/05/16 07:58:06;;;;;;;27.33;9.40;;;13.80;99.90;;;;;;5087074;28;20151;-78
2021/05/16 08:00:32;;;;;;;34.10;9.63;;;13.60;99.90;;;;;;5075762;28;20469;-79
2021/05/16 08:03:01;;;;;;;35.10;10.13;;;13.60;99.90;;;;;;5075933;28;20076;-79
2021/05/16 08:05:36;;;;;;;33.45;10.15;;;13.50;99.90;;;;;;5077305;28;20017;-79
2021/05/16 08:08:02;;;;;;;31.08;9.35;;;13.50;99.90;;;;;;5063920;28;20020;-81
2021/05/16 08:10:28;;;;;;;19.67;7.95;;;13.60;99.90;;;;;;5080651;28;20074;-81
2021/05/16 08:12:54;;;;;;;28.63;9.05;;;13.70;99.90;;;;;;5082050;28;20025;-80
2021/05/16 08:15:20;;;;;;;36.08;8.88;;;13.80;99.90;;;;;;5082793;28;20052;-83
2021/05/16 08:17:46;;;;;;;27.73;8.55;;;13.80;99.90;;;;;;5080143;28;20031;-80
2021/05/16 08:20:12;;;;;;;22.00;7.68;;;14.00;99.90;;;;;;5078619;28;20462;-77
2021/05/16 08:22:38;;;;;;;29.55;8.45;;;14.20;99.90;;;;;;5079191;28;20115;-79
2021/05/16 08:25:06;;;;;;;26.80;8.20;;;14.30;99.90;;;;;;5084200;28;20184;-84
2021/05/16 08:27:32;;;;;;;17.35;7.38;;;14.60;99.90;;;;;;5069646;28;20042;-75
2021/05/16 08:29:57;;;;;;;26.95;8.73;;;14.70;99.90;;;;;;5069580;28;20032;-78
2021/05/16 08:32:23;;;;;;;24.63;7.72;;;14.90;99.90;;;;;;5071900;28;20024;-80
2021/05/16 08:34:49;;;;;;;34.17;8.25;;;15.10;99.90;;;;;;5090556;28;20211;-79
2021/05/16 08:37:15;;;;;;;30.50;7.95;;;15.30;99.90;;;;;;5092377;28;20341;-78
2021/05/16 08:39:41;;;;;;;22.90;7.25;;;15.20;99.90;;;;;;5092820;28;20050;-80
2021/05/16 08:42:10;;;;;;;23.48;7.53;;;15.30;99.90;;;;;;5091617;28;20036;-80
2021/05/16 08:44:36;;;;;;;30.67;8.13;;;15.10;99.90;;;;;;5080661;28;20113;-80
2021/05/16 08:47:03;;;;;;;23.50;8.00;;;14.90;99.90;;;;;;5090831;28;20055;-79
2021/05/16 08:49:29;;;;;;;23.13;8.93;;;14.70;99.90;;;;;;5093137;28;20077;-79
2021/05/16 08:51:55;;;;;;;24.73;8.90;;;14.60;99.90;;;;;;5093231;28;20028;-78
2021/05/16 08:54:22;;;;;;;18.50;6.70;;;14.40;99.90;;;;;;5091215;28;20024;-78
2021/05/16 08:56:49;;;;;;;27.40;7.15;;;14.40;99.90;;;;;;5064629;28;20029;-79
2021/05/16 08:59:15;;;;;;;17.10;5.80;;;14.40;99.90;;;;;;5062037;28;20436;-77
2021/05/16 09:01:48;;;;;;;32.17;7.57;;;14.40;99.90;;;;;;5071622;28;20120;-77
2021/05/16 09:04:44;;;;;;;17.48;6.55;;;14.70;99.90;;;;;;5087404;28;20031;-80
2021/05/16 09:07:10;;;;;;;26.58;5.85;;;14.80;99.90;;;;;;5072031;28;20037;-79
2021/05/16 09:09:39;;;;;;;26.60;6.80;;;14.90;99.90;;;;;;5075236;28;20012;-77
2021/05/16 09:12:05;;;;;;;23.77;6.05;;;15.00;99.90;;;;;;5070824;28;20067;-78
2021/05/16 09:14:44;;;;;;;18.35;6.22;;;15.10;99.90;;;;;;5060702;28;20597;-78
2021/05/16 09:17:36;;;;;;;14.05;4.65;;;15.30;99.90;;;;;;5063403;28;20024;-78
2021/05/16 09:20:11;;;;;;;16.15;4.65;;;15.50;99.90;;;;;;5070958;28;20056;-78
2021/05/16 09:22:42;;;;;;;19.20;5.03;;;15.60;99.90;;;;;;5068905;28;20031;-78
2021/05/16 09:25:10;;;;;;;18.67;5.07;;;15.60;99.90;;;;;;5071241;28;20114;-79
2021/05/16 09:27:37;;;;;;;22.08;4.45;;;15.50;99.90;;;;;;5071601;28;20020;-78
2021/05/16 09:30:30;;;;;;;19.33;5.15;;;15.50;99.90;;;;;;5073479;28;20073;-79
2021/05/16 09:33:17;;;;;;;21.83;4.93;;;15.50;99.90;;;;;;5069320;28;20024;-79
2021/05/16 09:35:47;;;;;;;13.20;3.65;;;15.50;99.90;;;;;;5077315;28;20108;-79
2021/05/16 09:38:19;;;;;;;11.88;4.13;;;15.50;99.90;;;;;;5072782;28;20099;-80
2021/05/16 09:40:48;;;;;;;18.70;5.05;;;15.60;99.90;;;;;;5073240;28;20020;-81
2021/05/16 09:43:20;;;;;;;17.63;4.50;;;15.80;99.90;;;;;;5069950;28;20028;-80
2021/05/16 09:46:07;;;;;;;20.33;5.43;;;15.90;99.90;;;;;;5071252;28;20016;-79
2021/05/16 09:48:44;;;;;;;21.10;4.72;;;15.80;99.90;;;;;;5070698;28;20029;-80
2021/05/16 09:51:21;;;;;;;14.25;5.22;;;15.90;99.90;;;;;;5073059;28;20154;-80
2021/05/16 09:53:55;;;;;;;21.90;5.28;;;15.80;99.90;;;;;;5071520;28;20023;-81
2021/05/16 09:56:32;;;;;;;19.60;4.97;;;15.90;99.90;;;;;;5071181;28;20055;-80
2021/05/16 09:58:59;;;;;;;15.43;6.15;;;15.90;99.90;;;;;;5069370;28;20122;-78
2021/05/16 10:01:26;;;;;;;15.98;5.65;;;15.90;99.90;;;;;;5075882;28;20035;-80
2021/05/16 10:03:54;;;;;;;19.60;5.43;;;15.90;99.90;;;;;;5078561;28;20025;-80
2021/05/16 10:06:22;;;;;;;18.20;4.90;;;15.70;99.90;;;;;;5079757;28;20095;-81
2021/05/16 10:08:49;;;;;;;17.55;5.88;;;15.60;99.90;;;;;;5061849;28;20032;-80
2021/05/16 10:11:17;;;;;;;15.15;6.25;;;15.40;99.90;;;;;;5083370;28;20406;-79
2021/05/16 10:13:49;;;;;;;18.48;5.82;;;15.40;99.90;;;;;;5070834;28;20082;-80
2021/05/16 10:16:17;;;;;;;21.45;5.93;;;15.50;99.90;;;;;;5079662;28;20025;-79
2021/05/16 10:18:44;;;;;;;14.55;4.57;;;15.60;99.90;;;;;;5079536;28;20066;-79
2021/05/16 10:21:10;;;;;;;31.63;6.80;;;15.70;99.90;;;;;;5079879;28;20097;-78
2021/05/16 10:23:38;;;;;;;24.05;6.43;;;15.80;99.90;;;;;;5081527;28;20044;-80
2021/05/16 10:26:24;;;;;;;17.90;5.47;;;16.00;99.90;;;;;;5080105;28;20047;-80
2021/05/16 10:29:03;;;;;;;15.07;5.55;;;16.20;99.90;;;;;;5077951;28;20047;-80
2021/05/16 10:31:47;;;;;;;19.63;5.53;;;16.40;99.90;;;;;;5079102;28;20085;-79
2021/05/16 10:34:27;;;;;;;22.73;5.45;;;16.40;99.90;;;;;;5071562;28;20109;-78
2021/05/16 10:36:53;;;;;;;;;;;16.40;99.90;;;;;;5082726;28;20024;-81
2021/05/16 10:39:38;;;;;;;16.67;5.38;;;16.40;99.90;;;;;;5080243;28;20386;-79
2021/05/16 10:42:19;;;;;;;19.80;4.65;;;16.40;99.90;;;;;;5077473;28;20055;-80
2021/05/16 10:45:03;;;;;;;14.18;4.22;;;16.40;99.90;;;;;;5072133;28;20473;-79
2021/05/16 10:47:41;;;;;;;28.17;5.15;;;16.50;99.90;;;;;;5072256;28;20028;-80
2021/05/16 10:50:27;;;;;;;9.98;3.55;;;16.60;99.90;;;;;;5078427;28;20133;-81
2021/05/16 10:53:03;;;;;;;13.48;3.30;;;16.60;99.90;;;;;;5046513;28;20078;-79
2021/05/16 10:55:40;;;;;;;19.30;4.63;;;16.80;99.90;;;;;;5081048;28;20039;-76
2021/05/16 10:58:07;;;;;;;25.15;4.20;;;17.00;99.90;;;;;;5079204;28;20115;-75
2021/05/16 11:00:43;;;;;;;18.13;4.53;;;17.10;99.90;;;;;;5076065;28;20046;-75
2021/05/16 11:03:13;;;;;;;14.50;4.07;;;17.10;99.90;;;;;;5060284;28;20036;-75
2021/05/16 11:05:48;;;;;;;12.75;4.60;;;17.10;99.90;;;;;;5074512;28;20048;-76
2021/05/16 11:08:19;;;;;;;12.98;2.88;;;17.00;99.90;;;;;;5075646;28;20077;-74
2021/05/16 11:10:54;;;;;;;10.23;2.70;;;16.90;99.90;;;;;;5079876;28;20121;-77
2021/05/16 11:13:28;;;;;;;13.65;3.65;;;16.80;99.90;;;;;;5069828;28;20119;-78
2021/05/16 11:16:04;;;;;;;12.10;3.22;;;16.80;99.90;;;;;;5072394;28;20024;-77
2021/05/16 11:18:29;;;;;;;11.35;2.72;;;16.70;99.90;;;;;;5070383;28;20074;-78
2021/05/16 11:21:01;;;;;;;8.13;2.17;;;16.50;99.90;;;;;;5073614;28;20584;-80
2021/05/16 11:23:32;;;;;;;12.57;2.47;;;16.30;99.90;;;;;;5076249;28;20076;-79
2021/05/16 11:26:01;;;;;;;9.50;2.28;;;16.60;99.90;;;;;;5077132;28;20028;-78
2021/05/16 11:28:30;;;;;;;9.57;2.13;;;16.00;99.90;;;;;;5075582;28;20063;-78
2021/05/16 11:30:56;;;;;;;12.32;2.53;;;16.00;99.90;;;;;;5072891;28;20020;-79
2021/05/16 11:33:32;;;;;;;7.95;2.13;;;16.20;99.90;;;;;;5074480;28;20016;-78
2021/05/16 11:36:05;;;;;;;10.60;2.90;;;16.30;99.90;;;;;;5064436;28;20090;-78
2021/05/16 11:38:33;;;;;;;2.80;1.38;;;16.50;99.90;;;;;;5076200;28;20066;-78
2021/05/16 11:40:58;;;;;;;10.23;2.05;;;16.70;99.90;;;;;;5075611;28;20035;-78
2021/05/16 11:43:35;;;;;;;12.90;3.15;;;16.70;99.90;;;;;;5076940;28;20033;-79
2021/05/16 11:46:03;;;;;;;9.55;3.05;;;16.60;99.90;;;;;;5075586;28;20052;-78
2021/05/16 11:48:35;;;;;;;9.10;2.88;;;16.70;99.90;;;;;;5072187;28;20028;-78
2021/05/16 11:51:12;;;;;;;5.60;1.70;;;16.60;99.90;;;;;;5072634;28;20078;-78
2021/05/16 11:53:40;;;;;;;4.75;1.23;;;16.50;99.90;;;;;;5074008;28;20020;-77
2021/05/16 11:56:11;;;;;;;1.88;0.70;;;16.50;99.90;;;;;;5076613;28;20047;-79
2021/05/16 11:58:38;;;;;;;6.07;1.33;;;16.30;99.90;;;;;;5074323;28;20542;-77
2021/05/16 12:01:13;;;;;;;7.22;1.52;;;16.30;99.90;;;;;;5069509;28;20035;-77
2021/05/16 12:03:58;;;;;;;5.32;1.92;;;16.20;99.90;;;;;;5063021;28;20028;-77
2021/05/16 12:06:24;;;;;;;6.43;2.10;;;16.10;99.90;;;;;;5069991;28;20032;-79
2021/05/16 12:09:00;;;;;;;7.95;2.60;;;16.00;99.90;;;;;;5077121;28;20028;-78
2021/05/16 12:11:25;;;;;;;3.83;1.20;;;15.80;99.90;;;;;;5076945;28;20036;-79
2021/05/16 12:13:51;;;;;;;3.38;1.20;;;15.80;99.90;;;;;;5075485;28;20029;-78
2021/05/16 12:16:22;;;;;;;1.83;1.20;;;15.70;99.90;;;;;;5077803;28;20017;-79
2021/05/16 12:18:50;;;;;;;3.97;1.38;;;15.50;99.90;;;;;;5075606;28;20028;-77
2021/05/16 12:21:17;;;;;;;6.13;1.67;;;15.40;99.90;;;;;;5082826;28;20024;-78
2021/05/16 12:24:09;;;;;;;4.55;1.33;;;15.20;99.90;;;;;;5072640;28;20066;-77
2021/05/16 12:26:37;;;;;;;2.05;1.17;;;15.10;99.90;;;;;;5069763;28;20029;-77
2021/05/16 12:29:03;;;;;;;1.58;1.00;;;15.10;99.90;;;;;;5072922;28;20056;-78
2021/05/16 12:31:30;;;;;;;2.70;1.10;;;15.20;99.90;;;;;;5075193;28;20106;-77
2021/05/16 12:34:03;;;;;;;4.13;1.00;;;15.50;99.90;;;;;;5074003;28;20024;-78
2021/05/16 12:36:30;;;;;;;2.08;0.85;;;15.80;99.90;;;;;;5075466;28;20017;-77
2021/05/16 12:38:56;;;;;;;2.45;0.95;;;16.00;99.90;;;;;;5075092;28;20023;-78